sensor_id;sensor_type;location;lat;lon;timestamp;pressure;altitude;pressure_sealevel;temperature
8227;BMP180;4154;48.810;9.012;2024-02-21T00:02:21;98016.00;;;6.00
8227;BMP180;4154;48.810;9.012;2024-02-21T00:04:47;98023.00;;;6.00
8227;BMP180;4154;48.810;9.012;2024-02-21T00:07:12;98028.00;;;6.00
8227;BMP180;4154;48.810;9.012;2024-02-21T00:09:38;98031.00;;;6.00
8227;BMP180;4154;48.810;9.012;2024-02-21T00:12:04;98032.00;;;6.00
8227;BMP180;4154;48.810;9.012;2024-02-21T00:14:30;98026.00;;;6.00
8227;BMP180;4154;48.810;9.012;2024-02-21T00:16:56;98023.00;;;6.00
8227;BMP180;4154;48.810;9.012;2024-02-21T00:19:22;98013.00;;;6.10
8227;BMP180;4154;48.810;9.012;2024-02-21T00:21:47;98009.00;;;6.10
8227;BMP180;4154;48.810;9.012;2024-02-21T00:24:13;98004.00;;;6.10
8227;BMP180;4154;48.810;9.012;2024-02-21T00:26:38;97994.00;;;6.10
8227;BMP180;4154;48.810;9.012;2024-02-21T00:29:04;97993.00;;;6.10
8227;BMP180;4154;48.810;9.012;2024-02-21T00:31:30;97987.00;;;6.10
8227;BMP180;4154;48.810;9.012;2024-02-21T00:33:56;97987.00;;;6.10
8227;BMP180;4154;48.810;9.012;2024-02-21T00:36:23;97986.00;;;6.10
8227;BMP180;4154;48.810;9.012;2024-02-21T00:38:49;97978.00;;;6.00
8227;BMP180;4154;48.810;9.012;2024-02-21T00:41:14;97969.00;;;6.10
8227;BMP180;4154;48.810;9.012;2024-02-21T00:43:41;97975.00;;;6.10
8227;BMP180;4154;48.810;9.012;2024-02-21T00:46:07;97965.00;;;6.10
8227;BMP180;4154;48.810;9.012;2024-02-21T00:48:33;97971.00;;;6.10
8227;BMP180;4154;48.810;9.012;2024-02-21T00:50:59;97968.00;;;6.10
8227;BMP180;4154;48.810;9.012;2024-02-21T00:53:25;97967.00;;;5.90
8227;BMP180;4154;48.810;9.012;2024-02-21T00:55:50;97972.00;;;5.90
8227;BMP180;4154;48.810;9.012;2024-02-21T00:58:16;97967.00;;;6.00
8227;BMP180;4154;48.810;9.012;2024-02-21T01:00:42;97964.00;;;6.00
8227;BMP180;4154;48.810;9.012;2024-02-21T01:03:07;97965.00;;;5.90
8227;BMP180;4154;48.810;9.012;2024-02-21T01:05:33;97953.00;;;5.90
8227;BMP180;4154;48.810;9.012;2024-02-21T01:07:59;97955.00;;;6.00
8227;BMP180;4154;48.810;9.012;2024-02-21T01:10:24;97945.00;;;6.00
8227;BMP180;4154;48.810;9.012;2024-02-21T01:12:50;97932.00;;;6.00
8227;BMP180;4154;48.810;9.012;2024-02-21T01:15:16;97932.00;;;6.00
8227;BMP180;4154;48.810;9.012;2024-02-21T01:17:41;97927.00;;;5.90
8227;BMP180;4154;48.810;9.012;2024-02-21T01:20:07;97927.00;;;5.90
8227;BMP180;4154;48.810;9.012;2024-02-21T01:22:33;97925.00;;;6.00
8227;BMP180;4154;48.810;9.012;2024-02-21T01:24:59;97921.00;;;6.00
8227;BMP180;4154;48.810;9.012;2024-02-21T01:27:24;97912.00;;;5.90
8227;BMP180;4154;48.810;9.012;2024-02-21T01:29:50;97911.00;;;6.00
8227;BMP180;4154;48.810;9.012;2024-02-21T01:32:16;97909.00;;;6.00
8227;BMP180;4154;48.810;9.012;2024-02-21T01:34:42;97905.00;;;6.10
8227;BMP180;4154;48.810;9.012;2024-02-21T01:37:08;97901.00;;;6.00
8227;BMP180;4154;48.810;9.012;2024-02-21T01:39:34;97894.00;;;6.00
8227;BMP180;4154;48.810;9.012;2024-02-21T01:42:00;97895.00;;;6.10
8227;BMP180;4154;48.810;9.012;2024-02-21T01:44:26;97893.00;;;6.10
8227;BMP180;4154;48.810;9.012;2024-02-21T01:46:52;97892.00;;;6.20
8227;BMP180;4154;48.810;9.012;2024-02-21T01:49:20;97881.00;;;6.20
8227;BMP180;4154;48.810;9.012;2024-02-21T01:51:47;97885.00;;;6.30
8227;BMP180;4154;48.810;9.012;2024-02-21T01:54:15;97879.00;;;6.20
8227;BMP180;4154;48.810;9.012;2024-02-21T01:56:42;97877.00;;;6.30
8227;BMP180;4154;48.810;9.012;2024-02-21T01:59:08;97872.00;;;6.30
8227;BMP180;4154;48.810;9.012;2024-02-21T02:01:33;97877.00;;;6.40
8227;BMP180;4154;48.810;9.012;2024-02-21T02:03:59;97861.00;;;6.40
8227;BMP180;4154;48.810;9.012;2024-02-21T02:06:25;97851.00;;;6.40
8227;BMP180;4154;48.810;9.012;2024-02-21T02:08:52;97853.00;;;6.40
8227;BMP180;4154;48.810;9.012;2024-02-21T02:11:18;97849.00;;;6.40
8227;BMP180;4154;48.810;9.012;2024-02-21T02:13:44;97845.00;;;6.40
8227;BMP180;4154;48.810;9.012;2024-02-21T02:16:09;97845.00;;;6.40
8227;BMP180;4154;48.810;9.012;2024-02-21T02:18:35;97844.00;;;6.40
8227;BMP180;4154;48.810;9.012;2024-02-21T02:21:01;97839.00;;;6.40
8227;BMP180;4154;48.810;9.012;2024-02-21T02:23:29;97838.00;;;6.40
8227;BMP180;4154;48.810;9.012;2024-02-21T02:25:55;97823.00;;;6.50
8227;BMP180;4154;48.810;9.012;2024-02-21T02:28:22;97827.00;;;6.50
8227;BMP180;4154;48.810;9.012;2024-02-21T02:30:48;97816.00;;;6.50
8227;BMP180;4154;48.810;9.012;2024-02-21T02:33:14;97810.00;;;6.50
8227;BMP180;4154;48.810;9.012;2024-02-21T02:35:40;97819.00;;;6.50
8227;BMP180;4154;48.810;9.012;2024-02-21T02:38:06;97811.00;;;6.50
8227;BMP180;4154;48.810;9.012;2024-02-21T02:40:34;97803.00;;;6.50
8227;BMP180;4154;48.810;9.012;2024-02-21T02:43:00;97790.00;;;6.50
8227;BMP180;4154;48.810;9.012;2024-02-21T02:45:26;97793.00;;;6.50
8227;BMP180;4154;48.810;9.012;2024-02-21T02:47:53;97776.00;;;6.50
8227;BMP180;4154;48.810;9.012;2024-02-21T02:50:26;97787.00;;;6.40
8227;BMP180;4154;48.810;9.012;2024-02-21T02:52:54;97793.00;;;6.40
8227;BMP180;4154;48.810;9.012;2024-02-21T02:55:20;97788.00;;;6.30
8227;BMP180;4154;48.810;9.012;2024-02-21T02:57:46;97807.00;;;6.20
8227;BMP180;4154;48.810;9.012;2024-02-21T03:00:13;97808.00;;;6.20
8227;BMP180;4154;48.810;9.012;2024-02-21T03:02:42;97803.00;;;6.20
8227;BMP180;4154;48.810;9.012;2024-02-21T03:05:19;97806.00;;;6.20
8227;BMP180;4154;48.810;9.012;2024-02-21T03:07:46;97804.00;;;6.10
8227;BMP180;4154;48.810;9.012;2024-02-21T03:10:13;97795.00;;;6.10
8227;BMP180;4154;48.810;9.012;2024-02-21T03:12:39;97786.00;;;6.10
8227;BMP180;4154;48.810;9.012;2024-02-21T03:15:05;97777.00;;;6.20
8227;BMP180;4154;48.810;9.012;2024-02-21T03:17:32;97778.00;;;6.10
8227;BMP180;4154;48.810;9.012;2024-02-21T03:20:00;97793.00;;;6.00
8227;BMP180;4154;48.810;9.012;2024-02-21T03:22:26;97778.00;;;6.10
8227;BMP180;4154;48.810;9.012;2024-02-21T03:24:52;97765.00;;;6.10
8227;BMP180;4154;48.810;9.012;2024-02-21T03:27:18;97768.00;;;6.10
8227;BMP180;4154;48.810;9.012;2024-02-21T03:29:43;97758.00;;;6.10
8227;BMP180;4154;48.810;9.012;2024-02-21T03:32:09;97762.00;;;6.20
8227;BMP180;4154;48.810;9.012;2024-02-21T03:34:35;97781.00;;;6.10
8227;BMP180;4154;48.810;9.012;2024-02-21T03:37:01;97757.00;;;6.10
8227;BMP180;4154;48.810;9.012;2024-02-21T03:39:27;97755.00;;;6.00
8227;BMP180;4154;48.810;9.012;2024-02-21T03:41:52;97756.00;;;6.00
8227;BMP180;4154;48.810;9.012;2024-02-21T03:44:19;97753.00;;;5.90
8227;BMP180;4154;48.810;9.012;2024-02-21T03:46:44;97753.00;;;5.90
8227;BMP180;4154;48.810;9.012;2024-02-21T03:49:10;97761.00;;;5.90
8227;BMP180;4154;48.810;9.012;2024-02-21T03:51:36;97755.00;;;5.90
8227;BMP180;4154;48.810;9.012;2024-02-21T03:54:02;97756.00;;;5.80
8227;BMP180;4154;48.810;9.012;2024-02-21T03:56:27;97746.00;;;5.90
8227;BMP180;4154;48.810;9.012;2024-02-21T03:58:53;97741.00;;;5.80
8227;BMP180;4154;48.810;9.012;2024-02-21T04:01:19;97742.00;;;5.90
8227;BMP180;4154;48.810;9.012;2024-02-21T04:03:45;97741.00;;;5.80
8227;BMP180;4154;48.810;9.012;2024-02-21T04:06:10;97731.00;;;5.80
8227;BMP180;4154;48.810;9.012;2024-02-21T04:08:36;97723.00;;;5.80
8227;BMP180;4154;48.810;9.012;2024-02-21T04:11:02;97722.00;;;5.80
8227;BMP180;4154;48.810;9.012;2024-02-21T04:13:27;97721.00;;;5.80
8227;BMP180;4154;48.810;9.012;2024-02-21T04:15:53;97717.00;;;5.70
8227;BMP180;4154;48.810;9.012;2024-02-21T04:18:19;97706.00;;;5.70
8227;BMP180;4154;48.810;9.012;2024-02-21T04:20:44;97699.00;;;5.70
8227;BMP180;4154;48.810;9.012;2024-02-21T04:23:10;97707.00;;;5.70
8227;BMP180;4154;48.810;9.012;2024-02-21T04:25:36;97707.00;;;5.70
8227;BMP180;4154;48.810;9.012;2024-02-21T04:28:02;97721.00;;;5.70
8227;BMP180;4154;48.810;9.012;2024-02-21T04:30:28;97715.00;;;5.70
8227;BMP180;4154;48.810;9.012;2024-02-21T04:32:54;97716.00;;;5.70
8227;BMP180;4154;48.810;9.012;2024-02-21T04:35:20;97706.00;;;5.60
8227;BMP180;4154;48.810;9.012;2024-02-21T04:37:46;97708.00;;;5.70
8227;BMP180;4154;48.810;9.012;2024-02-21T04:40:12;97715.00;;;5.70
8227;BMP180;4154;48.810;9.012;2024-02-21T04:42:39;97722.00;;;5.70
8227;BMP180;4154;48.810;9.012;2024-02-21T04:45:05;97712.00;;;5.70
8227;BMP180;4154;48.810;9.012;2024-02-21T04:47:31;97707.00;;;5.70
8227;BMP180;4154;48.810;9.012;2024-02-21T04:49:57;97707.00;;;5.70
8227;BMP180;4154;48.810;9.012;2024-02-21T04:52:23;97708.00;;;5.70
8227;BMP180;4154;48.810;9.012;2024-02-21T04:54:48;97712.00;;;5.70
8227;BMP180;4154;48.810;9.012;2024-02-21T04:57:14;97709.00;;;5.60
8227;BMP180;4154;48.810;9.012;2024-02-21T04:59:45;97717.00;;;5.60
8227;BMP180;4154;48.810;9.012;2024-02-21T05:02:13;97703.00;;;5.60
8227;BMP180;4154;48.810;9.012;2024-02-21T05:04:39;97705.00;;;5.60
8227;BMP180;4154;48.810;9.012;2024-02-21T05:07:07;97705.00;;;5.60
8227;BMP180;4154;48.810;9.012;2024-02-21T05:09:33;97698.00;;;5.60
8227;BMP180;4154;48.810;9.012;2024-02-21T05:11:59;97687.00;;;5.60
8227;BMP180;4154;48.810;9.012;2024-02-21T05:14:28;97698.00;;;5.50
8227;BMP180;4154;48.810;9.012;2024-02-21T05:16:54;97683.00;;;5.40
8227;BMP180;4154;48.810;9.012;2024-02-21T05:19:19;97689.00;;;5.40
8227;BMP180;4154;48.810;9.012;2024-02-21T05:21:45;97673.00;;;5.40
8227;BMP180;4154;48.810;9.012;2024-02-21T05:24:12;97679.00;;;5.40
8227;BMP180;4154;48.810;9.012;2024-02-21T05:26:37;97677.00;;;5.30
8227;BMP180;4154;48.810;9.012;2024-02-21T05:29:03;97666.00;;;5.30
8227;BMP180;4154;48.810;9.012;2024-02-21T05:34:19;97642.00;;;5.30
8227;BMP180;4154;48.810;9.012;2024-02-21T05:36:45;97644.00;;;5.30
8227;BMP180;4154;48.810;9.012;2024-02-21T05:39:12;97646.00;;;5.20
8227;BMP180;4154;48.810;9.012;2024-02-21T05:41:37;97645.00;;;5.20
8227;BMP180;4154;48.810;9.012;2024-02-21T05:44:03;97636.00;;;5.30
8227;BMP180;4154;48.810;9.012;2024-02-21T05:46:29;97633.00;;;5.30
8227;BMP180;4154;48.810;9.012;2024-02-21T05:48:54;97630.00;;;5.20
8227;BMP180;4154;48.810;9.012;2024-02-21T05:51:20;97630.00;;;5.20
8227;BMP180;4154;48.810;9.012;2024-02-21T05:53:46;97630.00;;;5.20
8227;BMP180;4154;48.810;9.012;2024-02-21T05:56:13;97639.00;;;5.20
8227;BMP180;4154;48.810;9.012;2024-02-21T05:58:39;97642.00;;;5.20
8227;BMP180;4154;48.810;9.012;2024-02-21T06:01:05;97639.00;;;5.20
8227;BMP180;4154;48.810;9.012;2024-02-21T06:03:33;97647.00;;;5.20
8227;BMP180;4154;48.810;9.012;2024-02-21T06:06:02;97652.00;;;5.10
8227;BMP180;4154;48.810;9.012;2024-02-21T06:08:30;97654.00;;;5.10
8227;BMP180;4154;48.810;9.012;2024-02-21T06:10:56;97640.00;;;5.10
8227;BMP180;4154;48.810;9.012;2024-02-21T06:13:23;97630.00;;;5.10
8227;BMP180;4154;48.810;9.012;2024-02-21T06:15:50;97636.00;;;5.00
8227;BMP180;4154;48.810;9.012;2024-02-21T06:18:17;97630.00;;;5.00
8227;BMP180;4154;48.810;9.012;2024-02-21T06:20:43;97630.00;;;5.00
8227;BMP180;4154;48.810;9.012;2024-02-21T06:23:09;97635.00;;;5.00
8227;BMP180;4154;48.810;9.012;2024-02-21T06:25:35;97637.00;;;5.00
8227;BMP180;4154;48.810;9.012;2024-02-21T06:28:01;97644.00;;;4.90
8227;BMP180;4154;48.810;9.012;2024-02-21T06:30:27;97638.00;;;4.90
8227;BMP180;4154;48.810;9.012;2024-02-21T06:32:52;97642.00;;;4.90
8227;BMP180;4154;48.810;9.012;2024-02-21T06:35:21;97643.00;;;4.80
8227;BMP180;4154;48.810;9.012;2024-02-21T06:37:50;97652.00;;;4.90
8227;BMP180;4154;48.810;9.012;2024-02-21T06:40:21;97645.00;;;4.90
8227;BMP180;4154;48.810;9.012;2024-02-21T06:42:47;97641.00;;;4.90
8227;BMP180;4154;48.810;9.012;2024-02-21T06:45:13;97648.00;;;4.90
8227;BMP180;4154;48.810;9.012;2024-02-21T06:47:38;97627.00;;;5.00
8227;BMP180;4154;48.810;9.012;2024-02-21T06:50:05;97623.00;;;5.00
8227;BMP180;4154;48.810;9.012;2024-02-21T06:52:30;97629.00;;;5.00
8227;BMP180;4154;48.810;9.012;2024-02-21T06:54:56;97622.00;;;4.90
8227;BMP180;4154;48.810;9.012;2024-02-21T06:57:22;97629.00;;;5.00
8227;BMP180;4154;48.810;9.012;2024-02-21T06:59:48;97620.00;;;5.00
8227;BMP180;4154;48.810;9.012;2024-02-21T07:02:14;97641.00;;;4.90
8227;BMP180;4154;48.810;9.012;2024-02-21T07:04:39;97626.00;;;4.90
8227;BMP180;4154;48.810;9.012;2024-02-21T07:07:05;97618.00;;;4.90
8227;BMP180;4154;48.810;9.012;2024-02-21T07:09:30;97613.00;;;4.90
8227;BMP180;4154;48.810;9.012;2024-02-21T07:12:00;97620.00;;;4.90
8227;BMP180;4154;48.810;9.012;2024-02-21T07:14:28;97618.00;;;5.00
8227;BMP180;4154;48.810;9.012;2024-02-21T07:16:54;97615.00;;;4.90
8227;BMP180;4154;48.810;9.012;2024-02-21T07:19:20;97605.00;;;5.00
8227;BMP180;4154;48.810;9.012;2024-02-21T07:21:45;97608.00;;;5.00
8227;BMP180;4154;48.810;9.012;2024-02-21T07:24:11;97615.00;;;5.00
8227;BMP180;4154;48.810;9.012;2024-02-21T07:26:41;97614.00;;;5.10
8227;BMP180;4154;48.810;9.012;2024-02-21T07:29:07;97603.00;;;5.20
8227;BMP180;4154;48.810;9.012;2024-02-21T07:31:40;97599.00;;;5.20
8227;BMP180;4154;48.810;9.012;2024-02-21T07:34:06;97602.00;;;5.30
8227;BMP180;4154;48.810;9.012;2024-02-21T07:36:32;97594.00;;;5.40
8227;BMP180;4154;48.810;9.012;2024-02-21T07:38:57;97586.00;;;5.50
8227;BMP180;4154;48.810;9.012;2024-02-21T07:41:23;97578.00;;;5.60
8227;BMP180;4154;48.810;9.012;2024-02-21T07:43:49;97580.00;;;5.70
8227;BMP180;4154;48.810;9.012;2024-02-21T07:46:15;97582.00;;;5.70
8227;BMP180;4154;48.810;9.012;2024-02-21T07:48:41;97578.00;;;5.80
8227;BMP180;4154;48.810;9.012;2024-02-21T07:51:07;97568.00;;;5.80
8227;BMP180;4154;48.810;9.012;2024-02-21T07:53:32;97577.00;;;5.90
8227;BMP180;4154;48.810;9.012;2024-02-21T07:55:58;97565.00;;;6.00
8227;BMP180;4154;48.810;9.012;2024-02-21T07:58:24;97570.00;;;6.00
8227;BMP180;4154;48.810;9.012;2024-02-21T08:00:49;97568.00;;;6.20
8227;BMP180;4154;48.810;9.012;2024-02-21T08:03:15;97569.00;;;6.20
8227;BMP180;4154;48.810;9.012;2024-02-21T08:05:43;97582.00;;;6.30
8227;BMP180;4154;48.810;9.012;2024-02-21T08:08:09;97575.00;;;6.40
8227;BMP180;4154;48.810;9.012;2024-02-21T08:10:35;97578.00;;;6.40
8227;BMP180;4154;48.810;9.012;2024-02-21T08:13:01;97574.00;;;6.50
8227;BMP180;4154;48.810;9.012;2024-02-21T08:15:26;97571.00;;;6.60
8227;BMP180;4154;48.810;9.012;2024-02-21T08:17:57;97572.00;;;6.70
8227;BMP180;4154;48.810;9.012;2024-02-21T08:20:27;97559.00;;;6.80
8227;BMP180;4154;48.810;9.012;2024-02-21T08:22:52;97559.00;;;6.80
8227;BMP180;4154;48.810;9.012;2024-02-21T08:25:18;97560.00;;;6.80
8227;BMP180;4154;48.810;9.012;2024-02-21T08:27:44;97563.00;;;6.80
8227;BMP180;4154;48.810;9.012;2024-02-21T08:30:11;97554.00;;;6.90
8227;BMP180;4154;48.810;9.012;2024-02-21T08:32:37;97550.00;;;6.90
8227;BMP180;4154;48.810;9.012;2024-02-21T08:35:03;97541.00;;;7.00
8227;BMP180;4154;48.810;9.012;2024-02-21T08:37:30;97544.00;;;7.10
8227;BMP180;4154;48.810;9.012;2024-02-21T08:39:56;97542.00;;;7.10
8227;BMP180;4154;48.810;9.012;2024-02-21T08:42:21;97537.00;;;7.20
8227;BMP180;4154;48.810;9.012;2024-02-21T08:44:47;97537.00;;;7.20
8227;BMP180;4154;48.810;9.012;2024-02-21T08:47:13;97533.00;;;7.20
8227;BMP180;4154;48.810;9.012;2024-02-21T08:49:39;97525.00;;;7.30
8227;BMP180;4154;48.810;9.012;2024-02-21T08:52:05;97533.00;;;7.30
8227;BMP180;4154;48.810;9.012;2024-02-21T08:54:31;97526.00;;;7.40
8227;BMP180;4154;48.810;9.012;2024-02-21T08:56:58;97519.00;;;7.40
8227;BMP180;4154;48.810;9.012;2024-02-21T08:59:23;97522.00;;;7.60
8227;BMP180;4154;48.810;9.012;2024-02-21T09:01:51;97517.00;;;7.60
8227;BMP180;4154;48.810;9.012;2024-02-21T09:04:18;97516.00;;;7.70
8227;BMP180;4154;48.810;9.012;2024-02-21T09:06:45;97524.00;;;7.70
8227;BMP180;4154;48.810;9.012;2024-02-21T09:09:12;97523.00;;;7.80
8227;BMP180;4154;48.810;9.012;2024-02-21T09:11:38;97526.00;;;7.90
8227;BMP180;4154;48.810;9.012;2024-02-21T09:14:04;97509.00;;;7.80
8227;BMP180;4154;48.810;9.012;2024-02-21T09:16:33;97519.00;;;7.80
8227;BMP180;4154;48.810;9.012;2024-02-21T09:18:59;97498.00;;;7.90
8227;BMP180;4154;48.810;9.012;2024-02-21T09:21:25;97520.00;;;8.00
8227;BMP180;4154;48.810;9.012;2024-02-21T09:23:51;97503.00;;;7.90
8227;BMP180;4154;48.810;9.012;2024-02-21T09:26:17;97497.00;;;7.90
8227;BMP180;4154;48.810;9.012;2024-02-21T09:28:43;97498.00;;;7.90
8227;BMP180;4154;48.810;9.012;2024-02-21T09:31:09;97502.00;;;7.90
8227;BMP180;4154;48.810;9.012;2024-02-21T09:33:35;97505.00;;;8.00
8227;BMP180;4154;48.810;9.012;2024-02-21T09:36:01;97491.00;;;8.10
8227;BMP180;4154;48.810;9.012;2024-02-21T09:38:27;97495.00;;;8.10
8227;BMP180;4154;48.810;9.012;2024-02-21T09:41:17;97485.00;;;8.10
8227;BMP180;4154;48.810;9.012;2024-02-21T09:43:43;97489.00;;;8.20
8227;BMP180;4154;48.810;9.012;2024-02-21T09:46:18;97492.00;;;8.30
8227;BMP180;4154;48.810;9.012;2024-02-21T09:49:24;97485.00;;;8.40
8227;BMP180;4154;48.810;9.012;2024-02-21T09:51:55;97486.00;;;8.40
8227;BMP180;4154;48.810;9.012;2024-02-21T09:54:21;97478.00;;;8.50
8227;BMP180;4154;48.810;9.012;2024-02-21T09:56:47;97466.00;;;8.50
8227;BMP180;4154;48.810;9.012;2024-02-21T09:59:17;97472.00;;;8.50
8227;BMP180;4154;48.810;9.012;2024-02-21T10:01:44;97458.00;;;8.50
8227;BMP180;4154;48.810;9.012;2024-02-21T10:04:10;97478.00;;;8.60
8227;BMP180;4154;48.810;9.012;2024-02-21T10:06:36;97475.00;;;8.70
8227;BMP180;4154;48.810;9.012;2024-02-21T10:09:03;97465.00;;;8.70
8227;BMP180;4154;48.810;9.012;2024-02-21T10:11:29;97464.00;;;8.80
8227;BMP180;4154;48.810;9.012;2024-02-21T10:14:07;97453.00;;;8.90
8227;BMP180;4154;48.810;9.012;2024-02-21T10:16:33;97455.00;;;8.90
8227;BMP180;4154;48.810;9.012;2024-02-21T10:18:59;97446.00;;;9.00
8227;BMP180;4154;48.810;9.012;2024-02-21T10:21:25;97443.00;;;9.10
8227;BMP180;4154;48.810;9.012;2024-02-21T10:23:52;97441.00;;;9.10
8227;BMP180;4154;48.810;9.012;2024-02-21T10:26:19;97436.00;;;9.10
8227;BMP180;4154;48.810;9.012;2024-02-21T10:28:45;97437.00;;;9.20
8227;BMP180;4154;48.810;9.012;2024-02-21T10:31:26;97430.00;;;9.20
8227;BMP180;4154;48.810;9.012;2024-02-21T10:34:01;97421.00;;;9.30
8227;BMP180;4154;48.810;9.012;2024-02-21T10:36:31;97426.00;;;9.30
8227;BMP180;4154;48.810;9.012;2024-02-21T10:38:57;97422.00;;;9.40
8227;BMP180;4154;48.810;9.012;2024-02-21T10:41:24;97422.00;;;9.60
8227;BMP180;4154;48.810;9.012;2024-02-21T10:43:55;97420.00;;;9.60
8227;BMP180;4154;48.810;9.012;2024-02-21T10:46:24;97419.00;;;9.60
8227;BMP180;4154;48.810;9.012;2024-02-21T10:49:08;97397.00;;;9.70
8227;BMP180;4154;48.810;9.012;2024-02-21T10:51:43;97402.00;;;9.70
8227;BMP180;4154;48.810;9.012;2024-02-21T10:56:58;97396.00;;;9.80
8227;BMP180;4154;48.810;9.012;2024-02-21T10:59:26;97396.00;;;9.90
8227;BMP180;4154;48.810;9.012;2024-02-21T11:01:54;97391.00;;;9.90
8227;BMP180;4154;48.810;9.012;2024-02-21T11:04:21;97382.00;;;10.00
8227;BMP180;4154;48.810;9.012;2024-02-21T11:06:47;97379.00;;;9.90
8227;BMP180;4154;48.810;9.012;2024-02-21T11:09:13;97377.00;;;10.10
8227;BMP180;4154;48.810;9.012;2024-02-21T11:11:44;97371.00;;;10.10
8227;BMP180;4154;48.810;9.012;2024-02-21T11:14:21;97372.00;;;10.10
8227;BMP180;4154;48.810;9.012;2024-02-21T11:16:47;97369.00;;;10.10
8227;BMP180;4154;48.810;9.012;2024-02-21T11:19:21;97364.00;;;10.20
8227;BMP180;4154;48.810;9.012;2024-02-21T11:21:48;97363.00;;;10.30
8227;BMP180;4154;48.810;9.012;2024-02-21T11:24:26;97356.00;;;10.30
8227;BMP180;4154;48.810;9.012;2024-02-21T11:26:54;97348.00;;;10.40
8227;BMP180;4154;48.810;9.012;2024-02-21T11:29:24;97337.00;;;10.50
8227;BMP180;4154;48.810;9.012;2024-02-21T11:31:51;97340.00;;;10.50
8227;BMP180;4154;48.810;9.012;2024-02-21T11:34:18;97340.00;;;10.60
8227;BMP180;4154;48.810;9.012;2024-02-21T11:36:51;97334.00;;;10.60
8227;BMP180;4154;48.810;9.012;2024-02-21T11:39:25;97327.00;;;10.70
8227;BMP180;4154;48.810;9.012;2024-02-21T11:42:05;97321.00;;;10.80
8227;BMP180;4154;48.810;9.012;2024-02-21T11:44:34;97317.00;;;10.90
8227;BMP180;4154;48.810;9.012;2024-02-21T11:47:00;97312.00;;;10.90
8227;BMP180;4154;48.810;9.012;2024-02-21T11:49:29;97309.00;;;10.90
8227;BMP180;4154;48.810;9.012;2024-02-21T11:52:01;97299.00;;;11.00
8227;BMP180;4154;48.810;9.012;2024-02-21T11:54:27;97293.00;;;11.00
8227;BMP180;4154;48.810;9.012;2024-02-21T11:56:53;97288.00;;;11.00
8227;BMP180;4154;48.810;9.012;2024-02-21T11:59:19;97277.00;;;11.10
8227;BMP180;4154;48.810;9.012;2024-02-21T12:01:45;97273.00;;;11.10
8227;BMP180;4154;48.810;9.012;2024-02-21T12:04:11;97277.00;;;11.20
8227;BMP180;4154;48.810;9.012;2024-02-21T12:06:38;97280.00;;;11.30
8227;BMP180;4154;48.810;9.012;2024-02-21T12:09:07;97262.00;;;11.40
8227;BMP180;4154;48.810;9.012;2024-02-21T12:11:36;97252.00;;;11.40
8227;BMP180;4154;48.810;9.012;2024-02-21T12:14:03;97254.00;;;11.40
8227;BMP180;4154;48.810;9.012;2024-02-21T12:16:32;97246.00;;;11.50
8227;BMP180;4154;48.810;9.012;2024-02-21T12:19:02;97239.00;;;11.60
8227;BMP180;4154;48.810;9.012;2024-02-21T12:21:33;97236.00;;;11.50
8227;BMP180;4154;48.810;9.012;2024-02-21T12:24:31;97216.00;;;11.60
8227;BMP180;4154;48.810;9.012;2024-02-21T12:26:57;97213.00;;;11.60
8227;BMP180;4154;48.810;9.012;2024-02-21T12:29:25;97219.00;;;11.60
8227;BMP180;4154;48.810;9.012;2024-02-21T12:31:51;97207.00;;;11.70
8227;BMP180;4154;48.810;9.012;2024-02-21T12:34:17;97209.00;;;11.80
8227;BMP180;4154;48.810;9.012;2024-02-21T12:36:46;97207.00;;;11.90
8227;BMP180;4154;48.810;9.012;2024-02-21T12:39:13;97200.00;;;12.00
8227;BMP180;4154;48.810;9.012;2024-02-21T12:41:39;97189.00;;;12.00
8227;BMP180;4154;48.810;9.012;2024-02-21T12:44:09;97194.00;;;12.10
8227;BMP180;4154;48.810;9.012;2024-02-21T12:46:37;97179.00;;;12.10
8227;BMP180;4154;48.810;9.012;2024-02-21T12:49:04;97181.00;;;12.10
8227;BMP180;4154;48.810;9.012;2024-02-21T12:51:34;97169.00;;;12.10
8227;BMP180;4154;48.810;9.012;2024-02-21T12:54:00;97163.00;;;12.10
8227;BMP180;4154;48.810;9.012;2024-02-21T12:56:26;97156.00;;;12.20
8227;BMP180;4154;48.810;9.012;2024-02-21T12:58:57;97161.00;;;12.20
8227;BMP180;4154;48.810;9.012;2024-02-21T13:01:23;97161.00;;;12.20
8227;BMP180;4154;48.810;9.012;2024-02-21T13:03:48;97150.00;;;12.20
8227;BMP180;4154;48.810;9.012;2024-02-21T13:06:14;97140.00;;;12.30
8227;BMP180;4154;48.810;9.012;2024-02-21T13:08:40;97137.00;;;12.30
8227;BMP180;4154;48.810;9.012;2024-02-21T13:11:06;97136.00;;;12.30
8227;BMP180;4154;48.810;9.012;2024-02-21T13:13:32;97143.00;;;12.30
8227;BMP180;4154;48.810;9.012;2024-02-21T13:15:59;97128.00;;;12.30
8227;BMP180;4154;48.810;9.012;2024-02-21T13:18:25;97128.00;;;12.40
8227;BMP180;4154;48.810;9.012;2024-02-21T13:20:51;97123.00;;;12.40
8227;BMP180;4154;48.810;9.012;2024-02-21T13:23:16;97122.00;;;12.40
8227;BMP180;4154;48.810;9.012;2024-02-21T13:25:42;97118.00;;;12.40
8227;BMP180;4154;48.810;9.012;2024-02-21T13:28:09;97097.00;;;12.40
8227;BMP180;4154;48.810;9.012;2024-02-21T13:30:35;97089.00;;;12.50
8227;BMP180;4154;48.810;9.012;2024-02-21T13:33:01;97089.00;;;12.50
8227;BMP180;4154;48.810;9.012;2024-02-21T13:35:28;97077.00;;;12.50
8227;BMP180;4154;48.810;9.012;2024-02-21T13:37:54;97075.00;;;12.50
8227;BMP180;4154;48.810;9.012;2024-02-21T13:40:20;97072.00;;;12.50
8227;BMP180;4154;48.810;9.012;2024-02-21T13:42:45;97064.00;;;12.60
8227;BMP180;4154;48.810;9.012;2024-02-21T13:45:11;97060.00;;;12.60
8227;BMP180;4154;48.810;9.012;2024-02-21T13:47:36;97060.00;;;12.50
8227;BMP180;4154;48.810;9.012;2024-02-21T13:50:05;97057.00;;;12.50
8227;BMP180;4154;48.810;9.012;2024-02-21T13:52:31;97051.00;;;12.40
8227;BMP180;4154;48.810;9.012;2024-02-21T13:54:57;97048.00;;;12.50
8227;BMP180;4154;48.810;9.012;2024-02-21T13:57:23;97042.00;;;12.50
8227;BMP180;4154;48.810;9.012;2024-02-21T13:59:48;97041.00;;;12.50
8227;BMP180;4154;48.810;9.012;2024-02-21T14:02:14;97037.00;;;12.50
8227;BMP180;4154;48.810;9.012;2024-02-21T14:04:40;97032.00;;;12.60
8227;BMP180;4154;48.810;9.012;2024-02-21T14:07:06;97030.00;;;12.50
8227;BMP180;4154;48.810;9.012;2024-02-21T14:09:31;97033.00;;;12.60
8227;BMP180;4154;48.810;9.012;2024-02-21T14:11:58;97031.00;;;12.60
8227;BMP180;4154;48.810;9.012;2024-02-21T14:14:24;97024.00;;;12.50
8227;BMP180;4154;48.810;9.012;2024-02-21T14:16:49;97023.00;;;12.50
8227;BMP180;4154;48.810;9.012;2024-02-21T14:19:15;97020.00;;;12.40
8227;BMP180;4154;48.810;9.012;2024-02-21T14:21:41;97001.00;;;12.50
8227;BMP180;4154;48.810;9.012;2024-02-21T14:24:07;97010.00;;;12.40
8227;BMP180;4154;48.810;9.012;2024-02-21T14:26:33;97000.00;;;12.40
8227;BMP180;4154;48.810;9.012;2024-02-21T14:28:59;96996.00;;;12.40
8227;BMP180;4154;48.810;9.012;2024-02-21T14:31:25;96999.00;;;12.40
8227;BMP180;4154;48.810;9.012;2024-02-21T14:33:51;96993.00;;;12.40
8227;BMP180;4154;48.810;9.012;2024-02-21T14:36:17;96998.00;;;12.50
8227;BMP180;4154;48.810;9.012;2024-02-21T14:38:44;96992.00;;;12.50
8227;BMP180;4154;48.810;9.012;2024-02-21T14:41:10;96983.00;;;12.50
8227;BMP180;4154;48.810;9.012;2024-02-21T14:43:39;96992.00;;;12.50
8227;BMP180;4154;48.810;9.012;2024-02-21T14:46:05;96974.00;;;12.50
8227;BMP180;4154;48.810;9.012;2024-02-21T14:48:32;96961.00;;;12.50